Buoy 48633

sailwx.info

Track history (hours):
 
Tides and Currents Weather Stations Pressure Air Temp Water Temp Dewpoint Dewpoint Depression Visibility Wind Speed Wind Dir Waves Ship Positions

Drifting buoy 48633

Last reported at 2018-May-22 08:05 UTC. Time now 2018-May-22 09:58 UTC.
Position N 70°49' W 154°00'.

Barometer 1009.7 mb
Water temperature -4.0 ° C

Date/timePositionNaut miles runAvg speedWind from/ knotsBaromVisibWave heightAir tempDewpointWater temp
2018-May-22 08:05N 70°49' W 154°00'0 0.0 1009.7 -4.0
2018-May-22 08:00N 70°49' W 154°00'0 0.0 1009.7 -29.8 -4.0
2018-May-22 07:05N 70°49' W 154°00'0 0.0 1009.7 -4.0
2018-May-22 07:00N 70°49' W 154°00'0 0.0 1009.7 -30.2 -4.0
2018-May-22 06:05N 70°49' W 154°00'0 0.0 1009.5 -3.9
2018-May-22 06:00N 70°49' W 154°00'0 0.0 1009.5 -30.7 -3.9
2018-May-22 05:04N 70°49' W 154°00'0 0.0 1009.4 -3.9
2018-May-22 05:00N 70°49' W 154°00'0 0.0 1009.4 -31.2 -3.9
2018-May-22 04:07N 70°49' W 154°00'0 0.0 1009.4 -3.8
2018-May-22 04:00N 70°49' W 154°00'0 0.0 1009.4 -32.2 -3.8
2018-May-22 03:04N 70°49' W 154°00'0 0.0 1009.3 -3.8
2018-May-22 03:00N 70°49' W 154°00'0 0.0 1009.3 -32.9 -3.8
2018-May-22 02:06N 70°49' W 154°00'0 0.0 1009.6 -3.8
2018-May-22 02:00N 70°49' W 154°00'0 0.0 1009.6 -33.0 -3.8
2018-May-22 01:04N 70°49' W 154°00'0 0.0 1009.8 -4.0
2018-May-22 01:00N 70°49' W 154°00'0 0.0 1009.8 -33.4 -4.0
2018-May-22 00:07N 70°49' W 154°00'0 0.0 1010.1 -4.3
2018-May-22 00:00N 70°49' W 154°00'0 0.0 1010.1 -29.9 -4.3
2018-May-21 23:05N 70°49' W 154°00'0 0.0 1010.4 -4.6
2018-May-21 23:00N 70°49' W 154°00'0 0.0 1010.4 -29.8 -4.6
2018-May-21 22:05N 70°49' W 154°00'0 0.0 1010.8 -4.8
2018-May-21 22:00N 70°49' W 154°00'0 0.0 1010.8 -29.8 -4.8
2018-May-21 21:04N 70°49' W 154°00'0 0.0 1010.8 -5.0
2018-May-21 21:00N 70°49' W 154°00'0 0.0 1010.8 -30.2 -5.0
2018-May-21 20:05N 70°49' W 154°00'0 0.0 1010.9 -5.2
2018-May-21 20:00N 70°49' W 154°00'0 0.0 1010.9 -30.8 -5.2
2018-May-21 19:05N 70°49' W 154°00'0 0.0 1011.3 -5.4
2018-May-21 19:00N 70°49' W 154°00'0 0.0 1011.3 -31.0 -5.4
2018-May-21 18:08N 70°49' W 154°00'0 0.0 1011.3 -5.5
2018-May-21 18:00N 70°49' W 154°00'0 0.0 1011.3 -31.4 -5.5
2018-May-21 17:05N 70°49' W 154°00'0 0.0 1011.5 -5.5
2018-May-21 17:00N 70°49' W 154°00'0 0.0 1011.5 -31.4 -5.5
2018-May-21 16:04N 70°49' W 154°00'0 0.0 1011.6 -5.5
2018-May-21 16:00N 70°49' W 154°00'0 0.0 1011.6 -31.3 -5.5
2018-May-21 15:08N 70°49' W 154°00'0 0.0 1011.8 -5.4
2018-May-21 15:00N 70°49' W 154°00'0 0.0 1011.8 -30.7 -5.4
2018-May-21 14:00N 70°49' W 154°00'0 0.0 1012.0 -30.5 -5.4
2018-May-21 13:00N 70°49' W 154°00'0 0.0 1012.0 -29.7 -5.3
2018-May-21 12:04N 70°49' W 154°00'0 0.0 1012.3 -5.3
2018-May-21 12:00N 70°49' W 154°00'0 0.0 1012.3 -29.6 -5.3
2018-May-21 11:08N 70°49' W 154°00'0 0.0 1012.5 -5.2
2018-May-21 11:00N 70°49' W 154°00'0 0.0 1012.5 -29.4 -5.2
2018-May-21 10:06N 70°49' W 154°00'0 0.0 1012.6 -5.2
2018-May-21 10:00N 70°49' W 154°00'0 0.0 1012.6 -29.1 -5.2
2018-May-21 09:00N 70°49' W 154°00'0 0.0 1012.8 -29.1 -5.1
2018-May-21 08:04N 70°49' W 154°00'0 0.0 1012.8 -5.1
2018-May-21 08:00N 70°49' W 154°00'0 0.0 1012.8 -29.6 -5.1
2018-May-21 07:04N 70°49' W 154°00'0 0.0 1013.0 -5.0
2018-May-21 07:00N 70°49' W 154°00'0 0.0 1013.0 -29.0 -5.0
2018-May-21 06:04N 70°49' W 154°00'0 0.0 1013.3 -5.0
2018-May-21 06:00N 70°49' W 154°00'0 0.0 1013.3 -29.0 -5.0
2018-May-21 05:05N 70°49' W 154°00'0 0.0 1013.4 -5.0
2018-May-21 05:00N 70°49' W 154°00'0 0.0 1013.4 -29.1 -5.0
2018-May-21 04:04N 70°49' W 154°00'0 0.0 1013.5 -5.1
2018-May-21 04:00N 70°49' W 154°00'0 0.0 1013.5 -30.0 -5.1
2018-May-21 03:06N 70°49' W 154°00'0 0.0 1014.1 -5.1
2018-May-21 03:00N 70°49' W 154°00'0 0.0 1014.1 -30.4 -5.1
2018-May-21 02:04N 70°49' W 154°00'0 0.0 1014.3 -5.2
2018-May-21 02:00N 70°49' W 154°00'0 0.0 1014.3 -30.1 -5.2
2018-May-21 01:04N 70°49' W 154°00'0 0.0 1014.9 -5.4
2018-May-21 01:00N 70°49' W 154°00'0 0.0 1014.9 -31.4 -5.4
2018-May-21 00:04N 70°49' W 154°00'0 0.0 1015.4 -5.5
2018-May-21 00:00N 70°49' W 154°00'0 0.0 1015.4 -32.9 -5.5
2018-May-20 23:07N 70°49' W 154°00'0 0.0 1016.0 -5.6
2018-May-20 23:00N 70°49' W 154°00'0 0.0 1016.0 -34.0 -5.6
2018-May-20 22:05N 70°49' W 154°00'0 0.0 1016.3 -5.7
2018-May-20 22:00N 70°49' W 154°00'0 0.0 1016.3 -34.8 -5.7
2018-May-20 21:04N 70°49' W 154°00'0 0.0 1016.5 -5.8
2018-May-20 21:00N 70°49' W 154°00'0 0.0 1016.5 -35.1 -5.8
2018-May-20 20:06N 70°49' W 154°00'0 0.0 1016.6 -5.9
2018-May-20 20:00N 70°49' W 154°00'0 0.0 1016.6 -35.3 -5.9
2018-May-20 19:05N 70°49' W 154°00'0 0.0 1016.9 -6.1
2018-May-20 19:00N 70°49' W 154°00'0 0.0 1016.9 -35.4 -6.1
2018-May-20 18:05N 70°49' W 154°00'0 0.0 1017.5 -6.3
2018-May-20 18:00N 70°49' W 154°00'0 0.0 1017.1 -35.1 -6.2
2018-May-20 17:04N 70°49' W 154°00'0 0.0 1018.0 -6.2
2018-May-20 17:00N 70°49' W 154°00'0 0.0 1017.2 -35.0 -6.3
2018-May-20 16:00N 70°49' W 154°00'0 0.0 1018.0 -6.2
2018-May-20 13:05N 70°49' W 154°00'0 0.0 1018.1 -6.0
2018-May-20 13:00N 70°49' W 154°00'0 0.0 1018.1 -34.1 -6.0
2018-May-20 12:04N 70°49' W 154°00'0 0.0 1018.4 -5.9
2018-May-20 12:00N 70°49' W 154°00'0 0.0 1018.4 -33.9 -5.9
2018-May-20 11:04N 70°49' W 154°00'0 0.0 1018.6 -5.6
2018-May-20 11:00N 70°49' W 154°00'0 0.0 1018.6 -33.6 -5.6
2018-May-20 10:05N 70°49' W 154°00'0 0.0 1018.8 -5.4
2018-May-20 10:00N 70°49' W 154°00'0 0.0 1018.8 -33.6 -5.4
2018-May-20 09:05N 70°49' W 154°00'0 0.0 1019.0 -5.2
2018-May-20 09:00N 70°49' W 154°00'0 0.0 1019.0 -33.8 -5.2
2018-May-20 08:05N 70°49' W 154°00'0 0.0 1019.3 -4.9
2018-May-20 08:00N 70°49' W 154°00'0 0.0 1019.3 -32.4 -4.9
2018-May-20 07:04N 70°49' W 154°00'0 0.0 1019.2 -4.8
2018-May-20 07:00N 70°49' W 154°00'0 0.0 1019.2 -32.1 -4.8
2018-May-20 06:05N 70°49' W 154°00'0 0.0 1019.5 -4.6
2018-May-20 06:00N 70°49' W 154°00'0 0.0 1019.5 -32.8 -4.6
2018-May-20 05:04N 70°49' W 154°00'0 0.0 1019.6 -4.5
2018-May-20 05:00N 70°49' W 154°00'0 0.0 1019.6 -32.4 -4.5
2018-May-20 04:05N 70°49' W 154°00'0 0.0 1019.9 -4.5
2018-May-20 04:00N 70°49' W 154°00'0 0.0 1019.9 -32.6 -4.5
2018-May-20 03:05N 70°49' W 154°00'0 0.0 1020.2 -4.5
2018-May-20 03:00N 70°49' W 154°00'0 0.0 1020.2 -31.7 -4.5
2018-May-20 02:05N 70°49' W 154°00'0 0.0 1020.4 -4.6
2018-May-20 02:00N 70°49' W 154°00'0 0.0 1020.4 -30.9 -4.6
2018-May-20 01:00N 70°49' W 154°00'0 0.0 1020.7 -30.9 -4.7
2018-May-20 00:00N 70°49' W 154°00'0 0.0 1021.0 -30.5 -4.9
2018-May-19 23:00N 70°49' W 154°00'0 0.0 1021.6 -31.7 -5.1
2018-May-19 22:00N 70°49' W 154°00'0 0.0 1022.0 -31.8 -5.4
2018-May-19 21:00N 70°49' W 154°00'0 0.0 1022.3 -33.2 -5.7
2018-May-19 20:00N 70°49' W 154°00'0 0.0 1022.5 -34.1 -6.0
2018-May-19 19:00N 70°49' W 154°00'0 0.0 1022.9 -34.8 -6.3
2018-May-19 18:00N 70°49' W 154°00'0 0.0 1023.1 -33.8 -6.5
2018-May-19 17:00N 70°49' W 154°00'0 0.0 1023.2 -33.0 -6.7
2018-May-19 16:00N 70°49' W 154°00'0 0.0 1023.2 -33.8 -6.8
2018-May-19 15:00N 70°49' W 154°00'0 0.0 1023.2 -35.9 -6.8
2018-May-19 14:00N 70°49' W 154°00'0 0.0 1023.8 -36.9 -6.7
2018-May-19 13:00N 70°49' W 154°00'0 0.0 1024.2 -35.2 -6.5
2018-May-19 12:00N 70°49' W 154°00'0 0.0 1024.5 -33.8 -6.4
2018-May-19 11:00N 70°49' W 154°00'0 0.0 1024.7 -33.8 -6.3
2018-May-19 10:00N 70°49' W 154°00'0 0.0 1025.1 -33.9 -6.2
2018-May-19 09:00N 70°49' W 154°00'0 0.0 1025.3 -33.5 -6.0
2018-May-19 08:00N 70°49' W 154°00'0 0.0 1025.6 -33.0 -5.9
2018-May-19 07:00N 70°49' W 154°00'0 0.0 1025.8 -32.3 -5.7
2018-May-19 06:00N 70°49' W 154°00'0 0.0 1026.1 -32.4 -5.6
2018-May-19 05:00N 70°49' W 154°00'0 0.0 1026.2 -33.3 -5.5
2018-May-19 04:00N 70°49' W 154°00'0 0.0 1026.6 -34.2 -5.4
2018-May-19 03:00N 70°49' W 154°00'0 0.0 1026.9 -33.4 -5.3
2018-May-19 02:06N 70°49' W 154°00'0 0.0 1027.2 -5.3
2018-May-19 02:00N 70°49' W 154°00'0 0.0 1027.2 -33.0 -5.3
2018-May-19 01:04N 70°49' W 154°00'0 0.0 1027.6 -5.3
2018-May-19 01:00N 70°49' W 154°00'0 0.0 1027.6 -34.5 -5.3
2018-May-19 00:09N 70°49' W 154°00'0 0.0 1028.2 -5.4
2018-May-19 00:00N 70°49' W 154°00'0 0.0 1028.2 -35.7 -5.4
2018-May-18 23:04N 70°49' W 154°00'0 0.0 1028.5 -5.6
2018-May-18 23:00N 70°49' W 154°00'0 0.0 1028.5 -36.2 -5.6
2018-May-18 22:04N 70°49' W 154°00'0 0.0 1029.1 -5.7
2018-May-18 22:00N 70°49' W 154°00'0 0.0 1029.1 -35.5 -5.7
2018-May-18 21:04N 70°49' W 154°00'0 0.0 1029.2 -5.9
2018-May-18 21:00N 70°49' W 154°00'0 0.0 1029.2 -35.5 -5.9
2018-May-18 20:05N 70°49' W 154°00'0 0.0 1029.5 -6.0
2018-May-18 20:00N 70°49' W 154°00'0 0.0 1029.5 -35.2 -6.0
2018-May-18 19:04N 70°49' W 154°00'0 0.0 1029.6 -6.0
2018-May-18 19:00N 70°49' W 154°00'0 0.0 1029.6 -34.9 -6.0
2018-May-18 18:06N 70°49' W 154°00'0 0.0 1029.6 -6.1
2018-May-18 18:00N 70°49' W 154°00'0 0.0 1029.6 -34.8 -6.1
2018-May-18 17:05N 70°49' W 154°00'0 0.0 1029.7 -6.1
2018-May-18 17:00N 70°49' W 154°00'0 0.0 1029.7 -34.2 -6.1
2018-May-18 16:05N 70°49' W 154°00'0 0.0 1029.7 -5.7
2018-May-18 16:04N 70°49' W 154°00'0 0.0 1029.8 -6.1
2018-May-18 16:00N 70°49' W 154°00'0 0.0 1029.8 -34.0 -6.1
2018-May-16 23:04N 70°49' W 154°00'0 0.0 1023.0 -4.4
2018-May-16 23:00N 70°49' W 154°00'0 0.0 1023.0 -32.4 -4.4
2018-May-16 22:04N 70°49' W 154°00'0 0.0 1022.9 -4.4
2018-May-16 22:00N 70°49' W 154°00'0 0.0 1022.9 -32.6 -4.4
2018-May-16 21:04N 70°49' W 154°00'0 0.0 1022.7 -4.5
2018-May-16 21:00N 70°49' W 154°00'0 0.0 1022.7 -32.5 -4.5
2018-May-16 19:06N 70°49' W 154°00'0 0.0 1022.5 -4.6
2018-May-16 19:00N 70°49' W 154°00'0 0.0 1022.5 -30.9 -4.6
2018-May-16 18:04N 70°49' W 154°00'0 0.0 1022.3 -4.6
2018-May-16 18:00N 70°49' W 154°00'0 0.0 1022.3 -31.7 -4.6
2018-May-16 17:05N 70°49' W 154°00'0 0.0 1022.1 -4.6
2018-May-16 17:00N 70°49' W 154°00'0 0.0 1022.1 -30.4 -4.6
2018-May-16 16:04N 70°49' W 154°00'0 0.0 1022.1 -4.6
2018-May-16 16:00N 70°49' W 154°00'0 0.0 1022.1 -30.5 -4.6
2018-May-16 15:05N 70°49' W 154°00'0 0.0 1021.9 -4.5
2018-May-16 15:00N 70°49' W 154°00'0 0.0 1021.9 -30.3 -4.5
2018-May-16 14:05N 70°49' W 154°00'0 0.0 1021.8 -4.3
2018-May-16 14:00N 70°49' W 154°00'0 0.0 1021.8 -30.5 -4.3
2018-May-16 13:05N 70°49' W 154°00'0 0.0 1021.8 -4.2
2018-May-16 13:00N 70°49' W 154°00'0 0.0 1021.8 -31.1 -4.2
2018-May-16 12:05N 70°49' W 154°00'0 0.0 1021.8 -4.1
2018-May-16 12:00N 70°49' W 154°00'0 0.0 1021.8 -30.2 -4.1
2018-May-16 11:00N 70°49' W 154°00'0 0.0 1021.5 -30.9 -3.9
2018-May-16 10:05N 70°49' W 154°00'0 0.0 1021.4 -3.7
2018-May-16 10:00N 70°49' W 154°00'0 0.0 1021.4 -30.1 -3.7
2018-May-16 09:04N 70°49' W 154°00'0 0.0 1021.1 -3.6
2018-May-16 09:00N 70°49' W 154°00'0 0.0 1021.1 -30.3 -3.6
2018-May-16 08:05N 70°49' W 154°00'0 0.0 1020.8 -3.4
2018-May-16 08:00N 70°49' W 154°00'0 0.0 1020.8 -30.3 -3.4
2018-May-16 07:05N 70°49' W 154°00'0 0.0 1020.5 -3.3
2018-May-16 07:00N 70°49' W 154°00'0 0.0 1020.5 -27.9 -3.3
2018-May-16 06:04N 70°49' W 154°00'0 0.0 1020.4 -3.2
2018-May-16 06:00N 70°49' W 154°00'0 0.0 1020.4 -27.4 -3.2
2018-May-16 05:04N 70°49' W 154°00'0 0.0 1020.1 -3.1
2018-May-16 05:00N 70°49' W 154°00'0 0.0 1020.1 -26.4 -3.1
2018-May-16 04:05N 70°49' W 154°00'0 0.0 1020.0 -3.1
2018-May-16 04:00N 70°49' W 154°00'0 0.0 1020.0 -24.7 -3.1
2018-May-16 03:04N 70°49' W 154°00'0 0.0 1020.0 -3.1
2018-May-16 03:00N 70°49' W 154°00'0 0.0 1020.0 -23.0 -3.1
2018-May-16 02:00N 70°49' W 154°00'0 0.0 1020.0 -24.1 -3.1
2018-May-15 23:04N 70°49' W 154°00'0 0.0 1019.8 -3.4
2018-May-15 23:00N 70°49' W 154°00'0 0.0 1019.8 -26.6 -3.4
2018-May-15 22:04N 70°49' W 154°00'0 0.0 1019.7 -3.6
2018-May-15 22:00N 70°49' W 154°00'0 0.0 1019.7 -25.7 -3.6
2018-May-15 21:04N 70°49' W 154°00'0 0.0 1019.6 -3.7
2018-May-15 21:00N 70°49' W 154°00'0 0.0 1019.6 -25.2 -3.7
2018-May-15 20:00N 70°49' W 154°00'0 0.0 1019.4 -25.3 -3.9
2018-May-15 19:05N 70°49' W 154°00'0 0.0 1019.1 -4.0
2018-May-15 19:00N 70°49' W 154°00'0 0.0 1019.1 -25.4 -4.0
2018-May-15 18:04N 70°49' W 154°00'0 0.0 1019.0 -4.1
2018-May-15 18:00N 70°49' W 154°00'0 0.0 1019.0 -25.1 -4.1
2018-May-15 17:06N 70°49' W 154°00'0 0.0 1018.7 -4.1
2018-May-15 17:00N 70°49' W 154°00'0 0.0 1018.7 -24.6 -4.1
2018-May-15 16:04N 70°49' W 154°00'0 0.0 1018.6 -4.1
2018-May-15 16:00N 70°49' W 154°00'0 0.0 1018.6 -25.1 -4.1
2018-May-15 15:00N 70°49' W 154°00'0 0.0 1018.5 -25.2 -4.1
2018-May-15 14:04N 70°49' W 154°00'0 0.0 1018.4 -4.1
2018-May-15 14:00N 70°49' W 154°00'0 0.0 1018.4 -25.1 -4.1
2018-May-15 13:05N 70°49' W 154°00'0 0.0 1018.2 -4.0
2018-May-15 13:00N 70°49' W 154°00'0 0.0 1018.2 -25.3 -4.0
2018-May-15 12:05N 70°49' W 154°00'0 0.0 1018.1 -3.9
2018-May-15 12:00N 70°49' W 154°00'0 0.0 1018.1 -25.1 -3.9
2018-May-15 11:05N 70°49' W 154°00'0 0.0 1017.9 -3.8
2018-May-15 11:00N 70°49' W 154°00'0 0.0 1017.9 -25.4 -3.8
2018-May-15 10:06N 70°49' W 154°00'0 0.0 1017.8 -3.7
2018-May-15 10:00N 70°49' W 154°00'0 0.0 1017.8 -26.2 -3.7
2018-May-15 09:05N 70°49' W 154°00'0 0.0 1017.5 -3.5
2018-May-15 09:00N 70°49' W 154°00'0 0.0 1017.5 -26.4 -3.5
2018-May-15 08:05N 70°49' W 154°00'0 0.0 1017.2 -3.4
2018-May-15 08:00N 70°49' W 154°00'0 0.0 1017.2 -26.4 -3.4
2018-May-15 07:05N 70°49' W 154°00'0 0.0 1017.1 -3.3
2018-May-15 07:00N 70°49' W 154°00'0 0.0 1017.1 -26.2 -3.3
2018-May-15 06:04N 70°49' W 154°00'0 0.0 1016.5 -3.2
2018-May-15 06:00N 70°49' W 154°00'0 0.0 1016.9 -25.8 -3.1
2018-May-15 05:05N 70°49' W 154°00'0 0.0 1015.5 -3.7
2018-May-14 17:05N 70°49' W 154°00'0 0.0 1015.4 -4.0
2018-May-14 17:00N 70°49' W 154°00'0 0.0 1015.4 -22.5 -4.0
2018-May-14 16:04N 70°49' W 154°00'0 0.0 1015.1 -4.2
2018-May-14 16:00N 70°49' W 154°00'0 0.0 1015.1 -22.8 -4.2
2018-May-14 15:05N 70°49' W 154°00'0 0.0 1014.9 -4.2
2018-May-14 15:00N 70°49' W 154°00'0 0.0 1014.9 -24.0 -4.2
2018-May-14 14:05N 70°49' W 154°00'0 0.0 1014.5 -4.1
2018-May-14 14:00N 70°49' W 154°00'0 0.0 1014.5 -24.4 -4.1
2018-May-14 13:04N 70°49' W 154°00'0 0.0 1014.7 -4.1
2018-May-14 13:00N 70°49' W 154°00'0 0.0 1014.7 -24.1 -4.1
2018-May-14 12:08N 70°49' W 154°00'0 0.0 1014.7 -4.0
2018-May-14 12:05N 70°49' W 154°00'0 0.0 1014.2 -3.7
2018-May-14 12:00N 70°49' W 154°00'0 0.0 1014.7 -23.4 -4.0
2018-May-14 11:05N 70°49' W 154°00'0 0.0 1014.1 -3.6
2018-May-14 11:00N 70°49' W 154°00'0 0.0 1014.2 -3.7
2018-May-14 10:04N 70°49' W 154°00'0 0.0 1016.0 -4.9
2018-May-13 19:04N 70°49' W 154°00'0 0.0 1016.1 -5.4
2018-May-13 19:00N 70°49' W 154°00'0 0.0 1016.1 -28.0 -5.4
2018-May-13 18:04N 70°49' W 154°00'0 0.0 1016.1 -5.5
2018-May-13 18:00N 70°49' W 154°00'0 0.0 1016.1 -26.3 -5.5
2018-May-13 17:05N 70°49' W 154°00'0 0.0 1016.0 -5.6
2018-May-13 17:00N 70°49' W 154°00'0 0.0 1016.0 -25.7 -5.6
2018-May-13 16:04N 70°49' W 154°00'0 0.0 1016.0 -5.6
2018-May-13 16:00N 70°49' W 154°00'0 0.0 1016.0 -26.7 -5.6
2018-May-13 15:05N 70°49' W 154°00'0 0.0 1016.0 -5.5
2018-May-13 15:00N 70°49' W 154°00'0 0.0 1016.0 -25.4 -5.5
2018-May-13 14:06N 70°49' W 154°00'0 0.0 1015.9 -5.5
2018-May-13 14:00N 70°49' W 154°00'0 0.0 1015.9 -24.6 -5.5
2018-May-13 13:04N 70°49' W 154°00'0 0.0 1015.8 -5.4
2018-May-13 13:00N 70°49' W 154°00'0 0.0 1015.8 -24.5 -5.4
2018-May-13 12:05N 70°49' W 154°00'0 0.0 1015.6 -5.3
2018-May-13 12:00N 70°49' W 154°00'0 0.0 1015.6 -23.6 -5.3
2018-May-13 11:00N 70°49' W 154°00'0 0.0 1015.5 -23.1 -5.2
2018-May-13 10:05N 70°49' W 154°00'0 0.0 1008.7 -5.5
2018-May-13 10:00N 70°49' W 154°00'0 0.0 1011.3 -5.2
2018-May-13 09:01N 70°49' W 154°00'0 0.0 1006.4 -5.8
2018-May-12 20:05N 70°49' W 154°00'0 0.0 1006.0 -6.0
2018-May-12 20:00N 70°49' W 154°00'0 0.0 1006.0 -20.0 -6.0
2018-May-12 19:04N 70°49' W 154°00'0 0.0 1005.9 -6.1
2018-May-12 19:00N 70°49' W 154°00'0 0.0 1005.9 -20.9 -6.1
2018-May-12 18:04N 70°49' W 154°00'0 0.0 1005.6 -6.1
2018-May-12 18:00N 70°49' W 154°00'0 0.0 1005.6 -21.6 -6.1
2018-May-12 17:06N 70°49' W 154°00'0 0.0 1005.4 -6.2
2018-May-12 17:00N 70°49' W 154°00'0 0.0 1005.4 -22.0 -6.2
2018-May-12 16:05N 70°49' W 154°00'0 0.0 1005.2 -6.2
2018-May-12 16:00N 70°49' W 154°00'0 0.0 1005.2 -22.1 -6.2
2018-May-12 15:08N 70°49' W 154°00'0 0.0 1005.0 -6.2
2018-May-12 15:00N 70°49' W 154°00'0 0.0 1005.0 -22.5 -6.2
2018-May-12 14:04N 70°49' W 154°00'0 0.0 1004.7 -6.2
2018-May-12 14:00N 70°49' W 154°00'0 0.0 1004.7 -22.6 -6.2
2018-May-12 13:05N 70°49' W 154°00'0 0.0 1004.4 -6.2
2018-May-12 13:00N 70°49' W 154°00'0 0.0 1004.4 -22.5 -6.2
2018-May-12 12:04N 70°49' W 154°00'0 0.0 1004.0 -6.1
2018-May-12 12:00N 70°49' W 154°00'0 0.0 1004.0 -22.7 -6.1
2018-May-12 11:05N 70°49' W 154°00'0 0.0 1003.8 -6.1
2018-May-12 11:00N 70°49' W 154°00'0 0.0 1003.8 -22.9 -6.1
2018-May-12 10:04N 70°49' W 154°00'0 0.0 1003.6 -6.1
2018-May-12 10:00N 70°49' W 154°00'0 0.0 1003.6 -23.1 -6.1
2018-May-12 09:04N 70°49' W 154°00'0 0.0 1003.4 -6.1
2018-May-12 09:00N 70°49' W 154°00'   1003.4 -22.9 -6.1
Track history (hours):
 
Tides and Currents Weather Stations Pressure Air Temp Water Temp Dewpoint Dewpoint Depression Visibility Wind Speed Wind Dir Waves Ship Positions

Drifting buoy 48633

Last reported at 2018-May-22 08:05 UTC. Time now 2018-May-22 09:58 UTC.
Position N 70°49' W 154°00'.

Barometer 1009.7 mb
Water temperature -4.0 ° C

Date/timePositionNaut miles runAvg speedWind from/ knotsBaromVisibWave heightAir tempDewpointWater temp
2018-May-22 08:05N 70°49' W 154°00'0 0.0 1009.7 -4.0
2018-May-22 08:00N 70°49' W 154°00'0 0.0 1009.7 -29.8 -4.0
2018-May-22 07:05N 70°49' W 154°00'0 0.0 1009.7 -4.0
2018-May-22 07:00N 70°49' W 154°00'0 0.0 1009.7 -30.2 -4.0
2018-May-22 06:05N 70°49' W 154°00'0 0.0 1009.5 -3.9
2018-May-22 06:00N 70°49' W 154°00'0 0.0 1009.5 -30.7 -3.9
2018-May-22 05:04N 70°49' W 154°00'0 0.0 1009.4 -3.9
2018-May-22 05:00N 70°49' W 154°00'0 0.0 1009.4 -31.2 -3.9
2018-May-22 04:07N 70°49' W 154°00'0 0.0 1009.4 -3.8
2018-May-22 04:00N 70°49' W 154°00'0 0.0 1009.4 -32.2 -3.8
2018-May-22 03:04N 70°49' W 154°00'0 0.0 1009.3 -3.8
2018-May-22 03:00N 70°49' W 154°00'0 0.0 1009.3 -32.9 -3.8
2018-May-22 02:06N 70°49' W 154°00'0 0.0 1009.6 -3.8
2018-May-22 02:00N 70°49' W 154°00'0 0.0 1009.6 -33.0 -3.8
2018-May-22 01:04N 70°49' W 154°00'0 0.0 1009.8 -4.0
2018-May-22 01:00N 70°49' W 154°00'0 0.0 1009.8 -33.4 -4.0
2018-May-22 00:07N 70°49' W 154°00'0 0.0 1010.1 -4.3
2018-May-22 00:00N 70°49' W 154°00'0 0.0 1010.1 -29.9 -4.3
2018-May-21 23:05N 70°49' W 154°00'0 0.0 1010.4 -4.6
2018-May-21 23:00N 70°49' W 154°00'0 0.0 1010.4 -29.8 -4.6
2018-May-21 22:05N 70°49' W 154°00'0 0.0 1010.8 -4.8
2018-May-21 22:00N 70°49' W 154°00'0 0.0 1010.8 -29.8 -4.8
2018-May-21 21:04N 70°49' W 154°00'0 0.0 1010.8 -5.0
2018-May-21 21:00N 70°49' W 154°00'0 0.0 1010.8 -30.2 -5.0
2018-May-21 20:05N 70°49' W 154°00'0 0.0 1010.9 -5.2
2018-May-21 20:00N 70°49' W 154°00'0 0.0 1010.9 -30.8 -5.2
2018-May-21 19:05N 70°49' W 154°00'0 0.0 1011.3 -5.4
2018-May-21 19:00N 70°49' W 154°00'0 0.0 1011.3 -31.0 -5.4
2018-May-21 18:08N 70°49' W 154°00'0 0.0 1011.3 -5.5
2018-May-21 18:00N 70°49' W 154°00'0 0.0 1011.3 -31.4 -5.5
2018-May-21 17:05N 70°49' W 154°00'0 0.0 1011.5 -5.5
2018-May-21 17:00N 70°49' W 154°00'0 0.0 1011.5 -31.4 -5.5
2018-May-21 16:04N 70°49' W 154°00'0 0.0 1011.6 -5.5
2018-May-21 16:00N 70°49' W 154°00'0 0.0 1011.6 -31.3 -5.5
2018-May-21 15:08N 70°49' W 154°00'0 0.0 1011.8 -5.4
2018-May-21 15:00N 70°49' W 154°00'0 0.0 1011.8 -30.7 -5.4
2018-May-21 14:00N 70°49' W 154°00'0 0.0 1012.0 -30.5 -5.4
2018-May-21 13:00N 70°49' W 154°00'0 0.0 1012.0 -29.7 -5.3
2018-May-21 12:04N 70°49' W 154°00'0 0.0 1012.3 -5.3
2018-May-21 12:00N 70°49' W 154°00'0 0.0 1012.3 -29.6 -5.3
2018-May-21 11:08N 70°49' W 154°00'0 0.0 1012.5 -5.2
2018-May-21 11:00N 70°49' W 154°00'0 0.0 1012.5 -29.4 -5.2
2018-May-21 10:06N 70°49' W 154°00'0 0.0 1012.6 -5.2
2018-May-21 10:00N 70°49' W 154°00'0 0.0 1012.6 -29.1 -5.2
2018-May-21 09:00N 70°49' W 154°00'0 0.0 1012.8 -29.1 -5.1
2018-May-21 08:04N 70°49' W 154°00'0 0.0 1012.8 -5.1
2018-May-21 08:00N 70°49' W 154°00'0 0.0 1012.8 -29.6 -5.1
2018-May-21 07:04N 70°49' W 154°00'0 0.0 1013.0 -5.0
2018-May-21 07:00N 70°49' W 154°00'0 0.0 1013.0 -29.0 -5.0
2018-May-21 06:04N 70°49' W 154°00'0 0.0 1013.3 -5.0
2018-May-21 06:00N 70°49' W 154°00'0 0.0 1013.3 -29.0 -5.0
2018-May-21 05:05N 70°49' W 154°00'0 0.0 1013.4 -5.0
2018-May-21 05:00N 70°49' W 154°00'0 0.0 1013.4 -29.1 -5.0
2018-May-21 04:04N 70°49' W 154°00'0 0.0 1013.5 -5.1
2018-May-21 04:00N 70°49' W 154°00'0 0.0 1013.5 -30.0 -5.1
2018-May-21 03:06N 70°49' W 154°00'0 0.0 1014.1 -5.1
2018-May-21 03:00N 70°49' W 154°00'0 0.0 1014.1 -30.4 -5.1
2018-May-21 02:04N 70°49' W 154°00'0 0.0 1014.3 -5.2
2018-May-21 02:00N 70°49' W 154°00'0 0.0 1014.3 -30.1 -5.2
2018-May-21 01:04N 70°49' W 154°00'0 0.0 1014.9 -5.4
2018-May-21 01:00N 70°49' W 154°00'0 0.0 1014.9 -31.4 -5.4
2018-May-21 00:04N 70°49' W 154°00'0 0.0 1015.4 -5.5
2018-May-21 00:00N 70°49' W 154°00'0 0.0 1015.4 -32.9 -5.5
2018-May-20 23:07N 70°49' W 154°00'0 0.0 1016.0 -5.6
2018-May-20 23:00N 70°49' W 154°00'0 0.0 1016.0 -34.0 -5.6
2018-May-20 22:05N 70°49' W 154°00'0 0.0 1016.3 -5.7
2018-May-20 22:00N 70°49' W 154°00'0 0.0 1016.3 -34.8 -5.7
2018-May-20 21:04N 70°49' W 154°00'0 0.0 1016.5 -5.8
2018-May-20 21:00N 70°49' W 154°00'0 0.0 1016.5 -35.1 -5.8
2018-May-20 20:06N 70°49' W 154°00'0 0.0 1016.6 -5.9
2018-May-20 20:00N 70°49' W 154°00'0 0.0 1016.6 -35.3 -5.9
2018-May-20 19:05N 70°49' W 154°00'0 0.0 1016.9 -6.1
2018-May-20 19:00N 70°49' W 154°00'0 0.0 1016.9 -35.4 -6.1
2018-May-20 18:05N 70°49' W 154°00'0 0.0 1017.5 -6.3
2018-May-20 18:00N 70°49' W 154°00'0 0.0 1017.1 -35.1 -6.2
2018-May-20 17:04N 70°49' W 154°00'0 0.0 1018.0 -6.2
2018-May-20 17:00N 70°49' W 154°00'0 0.0 1017.2 -35.0 -6.3
2018-May-20 16:00N 70°49' W 154°00'0 0.0 1018.0 -6.2
2018-May-20 13:05N 70°49' W 154°00'0 0.0 1018.1 -6.0
2018-May-20 13:00N 70°49' W 154°00'0 0.0 1018.1 -34.1 -6.0
2018-May-20 12:04N 70°49' W 154°00'0 0.0 1018.4 -5.9
2018-May-20 12:00N 70°49' W 154°00'0 0.0 1018.4 -33.9 -5.9
2018-May-20 11:04N 70°49' W 154°00'0 0.0 1018.6 -5.6
2018-May-20 11:00N 70°49' W 154°00'0 0.0 1018.6 -33.6 -5.6
2018-May-20 10:05N 70°49' W 154°00'0 0.0 1018.8 -5.4
2018-May-20 10:00N 70°49' W 154°00'0 0.0 1018.8 -33.6 -5.4
2018-May-20 09:05N 70°49' W 154°00'0 0.0 1019.0 -5.2
2018-May-20 09:00N 70°49' W 154°00'0 0.0 1019.0 -33.8 -5.2
2018-May-20 08:05N 70°49' W 154°00'0 0.0 1019.3 -4.9
2018-May-20 08:00N 70°49' W 154°00'0 0.0 1019.3 -32.4 -4.9
2018-May-20 07:04N 70°49' W 154°00'0 0.0 1019.2 -4.8
2018-May-20 07:00N 70°49' W 154°00'0 0.0 1019.2 -32.1 -4.8
2018-May-20 06:05N 70°49' W 154°00'0 0.0 1019.5 -4.6
2018-May-20 06:00N 70°49' W 154°00'0 0.0 1019.5 -32.8 -4.6
2018-May-20 05:04N 70°49' W 154°00'0 0.0 1019.6 -4.5
2018-May-20 05:00N 70°49' W 154°00'0 0.0 1019.6 -32.4 -4.5
2018-May-20 04:05N 70°49' W 154°00'0 0.0 1019.9 -4.5
2018-May-20 04:00N 70°49' W 154°00'0 0.0 1019.9 -32.6 -4.5
2018-May-20 03:05N 70°49' W 154°00'0 0.0 1020.2 -4.5
2018-May-20 03:00N 70°49' W 154°00'0 0.0 1020.2 -31.7 -4.5
2018-May-20 02:05N 70°49' W 154°00'0 0.0 1020.4 -4.6
2018-May-20 02:00N 70°49' W 154°00'0 0.0 1020.4 -30.9 -4.6
2018-May-20 01:00N 70°49' W 154°00'0 0.0 1020.7 -30.9 -4.7
2018-May-20 00:00N 70°49' W 154°00'0 0.0 1021.0 -30.5 -4.9
2018-May-19 23:00N 70°49' W 154°00'0 0.0 1021.6 -31.7 -5.1
2018-May-19 22:00N 70°49' W 154°00'0 0.0 1022.0 -31.8 -5.4
2018-May-19 21:00N 70°49' W 154°00'0 0.0 1022.3 -33.2 -5.7
2018-May-19 20:00N 70°49' W 154°00'0 0.0 1022.5 -34.1 -6.0
2018-May-19 19:00N 70°49' W 154°00'0 0.0 1022.9 -34.8 -6.3
2018-May-19 18:00N 70°49' W 154°00'0 0.0 1023.1 -33.8 -6.5
2018-May-19 17:00N 70°49' W 154°00'0 0.0 1023.2 -33.0 -6.7
2018-May-19 16:00N 70°49' W 154°00'0 0.0 1023.2 -33.8 -6.8
2018-May-19 15:00N 70°49' W 154°00'0 0.0 1023.2 -35.9 -6.8
2018-May-19 14:00N 70°49' W 154°00'0 0.0 1023.8 -36.9 -6.7
2018-May-19 13:00N 70°49' W 154°00'0 0.0 1024.2 -35.2 -6.5
2018-May-19 12:00N 70°49' W 154°00'0 0.0 1024.5 -33.8 -6.4
2018-May-19 11:00N 70°49' W 154°00'0 0.0 1024.7 -33.8 -6.3
2018-May-19 10:00N 70°49' W 154°00'0 0.0 1025.1 -33.9 -6.2
2018-May-19 09:00N 70°49' W 154°00'0 0.0 1025.3 -33.5 -6.0
2018-May-19 08:00N 70°49' W 154°00'0 0.0 1025.6 -33.0 -5.9
2018-May-19 07:00N 70°49' W 154°00'0 0.0 1025.8 -32.3 -5.7
2018-May-19 06:00N 70°49' W 154°00'0 0.0 1026.1 -32.4 -5.6
2018-May-19 05:00N 70°49' W 154°00'0 0.0 1026.2 -33.3 -5.5
2018-May-19 04:00N 70°49' W 154°00'0 0.0 1026.6 -34.2 -5.4
2018-May-19 03:00N 70°49' W 154°00'0 0.0 1026.9 -33.4 -5.3
2018-May-19 02:06N 70°49' W 154°00'0 0.0 1027.2 -5.3
2018-May-19 02:00N 70°49' W 154°00'0 0.0 1027.2 -33.0 -5.3
2018-May-19 01:04N 70°49' W 154°00'0 0.0 1027.6 -5.3
2018-May-19 01:00N 70°49' W 154°00'0 0.0 1027.6 -34.5 -5.3
2018-May-19 00:09N 70°49' W 154°00'0 0.0 1028.2 -5.4
2018-May-19 00:00N 70°49' W 154°00'0 0.0 1028.2 -35.7 -5.4
2018-May-18 23:04N 70°49' W 154°00'0 0.0 1028.5 -5.6
2018-May-18 23:00N 70°49' W 154°00'0 0.0 1028.5 -36.2 -5.6
2018-May-18 22:04N 70°49' W 154°00'0 0.0 1029.1 -5.7
2018-May-18 22:00N 70°49' W 154°00'0 0.0 1029.1 -35.5 -5.7
2018-May-18 21:04N 70°49' W 154°00'0 0.0 1029.2 -5.9
2018-May-18 21:00N 70°49' W 154°00'0 0.0 1029.2 -35.5 -5.9
2018-May-18 20:05N 70°49' W 154°00'0 0.0 1029.5 -6.0
2018-May-18 20:00N 70°49' W 154°00'0 0.0 1029.5 -35.2 -6.0
2018-May-18 19:04N 70°49' W 154°00'0 0.0 1029.6 -6.0
2018-May-18 19:00N 70°49' W 154°00'0 0.0 1029.6 -34.9 -6.0
2018-May-18 18:06N 70°49' W 154°00'0 0.0 1029.6 -6.1
2018-May-18 18:00N 70°49' W 154°00'0 0.0 1029.6 -34.8 -6.1
2018-May-18 17:05N 70°49' W 154°00'0 0.0 1029.7 -6.1
2018-May-18 17:00N 70°49' W 154°00'0 0.0 1029.7 -34.2 -6.1
2018-May-18 16:05N 70°49' W 154°00'0 0.0 1029.7 -5.7
2018-May-18 16:04N 70°49' W 154°00'0 0.0 1029.8 -6.1
2018-May-18 16:00N 70°49' W 154°00'0 0.0 1029.8 -34.0 -6.1
2018-May-16 23:04N 70°49' W 154°00'0 0.0 1023.0 -4.4
2018-May-16 23:00N 70°49' W 154°00'0 0.0 1023.0 -32.4 -4.4
2018-May-16 22:04N 70°49' W 154°00'0 0.0 1022.9 -4.4
2018-May-16 22:00N 70°49' W 154°00'0 0.0 1022.9 -32.6 -4.4
2018-May-16 21:04N 70°49' W 154°00'0 0.0 1022.7 -4.5
2018-May-16 21:00N 70°49' W 154°00'0 0.0 1022.7 -32.5 -4.5
2018-May-16 19:06N 70°49' W 154°00'0 0.0 1022.5 -4.6
2018-May-16 19:00N 70°49' W 154°00'0 0.0 1022.5 -30.9 -4.6
2018-May-16 18:04N 70°49' W 154°00'0 0.0 1022.3 -4.6
2018-May-16 18:00N 70°49' W 154°00'0 0.0 1022.3 -31.7 -4.6
2018-May-16 17:05N 70°49' W 154°00'0 0.0 1022.1 -4.6
2018-May-16 17:00N 70°49' W 154°00'0 0.0 1022.1 -30.4 -4.6
2018-May-16 16:04N 70°49' W 154°00'0 0.0 1022.1 -4.6
2018-May-16 16:00N 70°49' W 154°00'0 0.0 1022.1 -30.5 -4.6
2018-May-16 15:05N 70°49' W 154°00'0 0.0 1021.9 -4.5
2018-May-16 15:00N 70°49' W 154°00'0 0.0 1021.9 -30.3 -4.5
2018-May-16 14:05N 70°49' W 154°00'0 0.0 1021.8 -4.3
2018-May-16 14:00N 70°49' W 154°00'0 0.0 1021.8 -30.5 -4.3
2018-May-16 13:05N 70°49' W 154°00'0 0.0 1021.8 -4.2
2018-May-16 13:00N 70°49' W 154°00'0 0.0 1021.8 -31.1 -4.2
2018-May-16 12:05N 70°49' W 154°00'0 0.0 1021.8 -4.1
2018-May-16 12:00N 70°49' W 154°00'0 0.0 1021.8 -30.2 -4.1
2018-May-16 11:00N 70°49' W 154°00'0 0.0 1021.5 -30.9 -3.9
2018-May-16 10:05N 70°49' W 154°00'0 0.0 1021.4 -3.7
2018-May-16 10:00N 70°49' W 154°00'0 0.0 1021.4 -30.1 -3.7
2018-May-16 09:04N 70°49' W 154°00'0 0.0 1021.1 -3.6
2018-May-16 09:00N 70°49' W 154°00'0 0.0 1021.1 -30.3 -3.6
2018-May-16 08:05N 70°49' W 154°00'0 0.0 1020.8 -3.4
2018-May-16 08:00N 70°49' W 154°00'0 0.0 1020.8 -30.3 -3.4
2018-May-16 07:05N 70°49' W 154°00'0 0.0 1020.5 -3.3
2018-May-16 07:00N 70°49' W 154°00'0 0.0 1020.5 -27.9 -3.3
2018-May-16 06:04N 70°49' W 154°00'0 0.0 1020.4 -3.2
2018-May-16 06:00N 70°49' W 154°00'0 0.0 1020.4 -27.4 -3.2
2018-May-16 05:04N 70°49' W 154°00'0 0.0 1020.1 -3.1
2018-May-16 05:00N 70°49' W 154°00'0 0.0 1020.1 -26.4 -3.1
2018-May-16 04:05N 70°49' W 154°00'0 0.0 1020.0 -3.1
2018-May-16 04:00N 70°49' W 154°00'0 0.0 1020.0 -24.7 -3.1
2018-May-16 03:04N 70°49' W 154°00'0 0.0 1020.0 -3.1
2018-May-16 03:00N 70°49' W 154°00'0 0.0 1020.0 -23.0 -3.1
2018-May-16 02:00N 70°49' W 154°00'0 0.0 1020.0 -24.1 -3.1
2018-May-15 23:04N 70°49' W 154°00'0 0.0 1019.8 -3.4
2018-May-15 23:00N 70°49' W 154°00'0 0.0 1019.8 -26.6 -3.4
2018-May-15 22:04N 70°49' W 154°00'0 0.0 1019.7 -3.6
2018-May-15 22:00N 70°49' W 154°00'0 0.0 1019.7 -25.7 -3.6
2018-May-15 21:04N 70°49' W 154°00'0 0.0 1019.6 -3.7
2018-May-15 21:00N 70°49' W 154°00'0 0.0 1019.6 -25.2 -3.7
2018-May-15 20:00N 70°49' W 154°00'0 0.0 1019.4 -25.3 -3.9
2018-May-15 19:05N 70°49' W 154°00'0 0.0 1019.1 -4.0
2018-May-15 19:00N 70°49' W 154°00'0 0.0 1019.1 -25.4 -4.0
2018-May-15 18:04N 70°49' W 154°00'0 0.0 1019.0 -4.1
2018-May-15 18:00N 70°49' W 154°00'0 0.0 1019.0 -25.1 -4.1
2018-May-15 17:06N 70°49' W 154°00'0 0.0 1018.7 -4.1
2018-May-15 17:00N 70°49' W 154°00'0 0.0 1018.7 -24.6 -4.1
2018-May-15 16:04N 70°49' W 154°00'0 0.0 1018.6 -4.1
2018-May-15 16:00N 70°49' W 154°00'0 0.0 1018.6 -25.1 -4.1
2018-May-15 15:00N 70°49' W 154°00'0 0.0 1018.5 -25.2 -4.1
2018-May-15 14:04N 70°49' W 154°00'0 0.0 1018.4 -4.1
2018-May-15 14:00N 70°49' W 154°00'0 0.0 1018.4 -25.1 -4.1
2018-May-15 13:05N 70°49' W 154°00'0 0.0 1018.2 -4.0
2018-May-15 13:00N 70°49' W 154°00'0 0.0 1018.2 -25.3 -4.0
2018-May-15 12:05N 70°49' W 154°00'0 0.0 1018.1 -3.9
2018-May-15 12:00N 70°49' W 154°00'0 0.0 1018.1 -25.1 -3.9
2018-May-15 11:05N 70°49' W 154°00'0 0.0 1017.9 -3.8
2018-May-15 11:00N 70°49' W 154°00'0 0.0 1017.9 -25.4 -3.8
2018-May-15 10:06N 70°49' W 154°00'0 0.0 1017.8 -3.7
2018-May-15 10:00N 70°49' W 154°00'0 0.0 1017.8 -26.2 -3.7
2018-May-15 09:05N 70°49' W 154°00'0 0.0 1017.5 -3.5
2018-May-15 09:00N 70°49' W 154°00'0 0.0 1017.5 -26.4 -3.5
2018-May-15 08:05N 70°49' W 154°00'0 0.0 1017.2 -3.4
2018-May-15 08:00N 70°49' W 154°00'0 0.0 1017.2 -26.4 -3.4
2018-May-15 07:05N 70°49' W 154°00'0 0.0 1017.1 -3.3
2018-May-15 07:00N 70°49' W 154°00'0 0.0 1017.1 -26.2 -3.3
2018-May-15 06:04N 70°49' W 154°00'0 0.0 1016.5 -3.2
2018-May-15 06:00N 70°49' W 154°00'0 0.0 1016.9 -25.8 -3.1
2018-May-15 05:05N 70°49' W 154°00'0 0.0 1015.5 -3.7
2018-May-14 17:05N 70°49' W 154°00'0 0.0 1015.4 -4.0
2018-May-14 17:00N 70°49' W 154°00'0 0.0 1015.4 -22.5 -4.0
2018-May-14 16:04N 70°49' W 154°00'0 0.0 1015.1 -4.2
2018-May-14 16:00N 70°49' W 154°00'0 0.0 1015.1 -22.8 -4.2
2018-May-14 15:05N 70°49' W 154°00'0 0.0 1014.9 -4.2
2018-May-14 15:00N 70°49' W 154°00'0 0.0 1014.9 -24.0 -4.2
2018-May-14 14:05N 70°49' W 154°00'0 0.0 1014.5 -4.1
2018-May-14 14:00N 70°49' W 154°00'0 0.0 1014.5 -24.4 -4.1
2018-May-14 13:04N 70°49' W 154°00'0 0.0 1014.7 -4.1
2018-May-14 13:00N 70°49' W 154°00'0 0.0 1014.7 -24.1 -4.1
2018-May-14 12:08N 70°49' W 154°00'0 0.0 1014.7 -4.0
2018-May-14 12:05N 70°49' W 154°00'0 0.0 1014.2 -3.7
2018-May-14 12:00N 70°49' W 154°00'0 0.0 1014.7 -23.4 -4.0
2018-May-14 11:05N 70°49' W 154°00'0 0.0 1014.1 -3.6
2018-May-14 11:00N 70°49' W 154°00'0 0.0 1014.2 -3.7
2018-May-14 10:04N 70°49' W 154°00'0 0.0 1016.0 -4.9
2018-May-13 19:04N 70°49' W 154°00'0 0.0 1016.1 -5.4
2018-May-13 19:00N 70°49' W 154°00'0 0.0 1016.1 -28.0 -5.4
2018-May-13 18:04N 70°49' W 154°00'0 0.0 1016.1 -5.5
2018-May-13 18:00N 70°49' W 154°00'0 0.0 1016.1 -26.3 -5.5
2018-May-13 17:05N 70°49' W 154°00'0 0.0 1016.0 -5.6
2018-May-13 17:00N 70°49' W 154°00'0 0.0 1016.0 -25.7 -5.6
2018-May-13 16:04N 70°49' W 154°00'0 0.0 1016.0 -5.6
2018-May-13 16:00N 70°49' W 154°00'0 0.0 1016.0 -26.7 -5.6
2018-May-13 15:05N 70°49' W 154°00'0 0.0 1016.0 -5.5
2018-May-13 15:00N 70°49' W 154°00'0 0.0 1016.0 -25.4 -5.5
2018-May-13 14:06N 70°49' W 154°00'0 0.0 1015.9 -5.5
2018-May-13 14:00N 70°49' W 154°00'0 0.0 1015.9 -24.6 -5.5
2018-May-13 13:04N 70°49' W 154°00'0 0.0 1015.8 -5.4
2018-May-13 13:00N 70°49' W 154°00'0 0.0 1015.8 -24.5 -5.4
2018-May-13 12:05N 70°49' W 154°00'0 0.0 1015.6 -5.3
2018-May-13 12:00N 70°49' W 154°00'0 0.0 1015.6 -23.6 -5.3
2018-May-13 11:00N 70°49' W 154°00'0 0.0 1015.5 -23.1 -5.2
2018-May-13 10:05N 70°49' W 154°00'0 0.0 1008.7 -5.5
2018-May-13 10:00N 70°49' W 154°00'0 0.0 1011.3 -5.2
2018-May-13 09:01N 70°49' W 154°00'0 0.0 1006.4 -5.8
2018-May-12 20:05N 70°49' W 154°00'0 0.0 1006.0 -6.0
2018-May-12 20:00N 70°49' W 154°00'0 0.0 1006.0 -20.0 -6.0
2018-May-12 19:04N 70°49' W 154°00'0 0.0 1005.9 -6.1
2018-May-12 19:00N 70°49' W 154°00'0 0.0 1005.9 -20.9 -6.1
2018-May-12 18:04N 70°49' W 154°00'0 0.0 1005.6 -6.1
2018-May-12 18:00N 70°49' W 154°00'0 0.0 1005.6 -21.6 -6.1
2018-May-12 17:06N 70°49' W 154°00'0 0.0 1005.4 -6.2
2018-May-12 17:00N 70°49' W 154°00'0 0.0 1005.4 -22.0 -6.2
2018-May-12 16:05N 70°49' W 154°00'0 0.0 1005.2 -6.2
2018-May-12 16:00N 70°49' W 154°00'0 0.0 1005.2 -22.1 -6.2
2018-May-12 15:08N 70°49' W 154°00'0 0.0 1005.0 -6.2
2018-May-12 15:00N 70°49' W 154°00'0 0.0 1005.0 -22.5 -6.2
2018-May-12 14:04N 70°49' W 154°00'0 0.0 1004.7 -6.2
2018-May-12 14:00N 70°49' W 154°00'0 0.0 1004.7 -22.6 -6.2
2018-May-12 13:05N 70°49' W 154°00'0 0.0 1004.4 -6.2
2018-May-12 13:00N 70°49' W 154°00'0 0.0 1004.4 -22.5 -6.2
2018-May-12 12:04N 70°49' W 154°00'0 0.0 1004.0 -6.1
2018-May-12 12:00N 70°49' W 154°00'0 0.0 1004.0 -22.7 -6.1
2018-May-12 11:05N 70°49' W 154°00'0 0.0 1003.8 -6.1
2018-May-12 11:00N 70°49' W 154°00'0 0.0 1003.8 -22.9 -6.1
2018-May-12 10:04N 70°49' W 154°00'0 0.0 1003.6 -6.1
2018-May-12 10:00N 70°49' W 154°00'0 0.0 1003.6 -23.1 -6.1
2018-May-12 09:04N 70°49' W 154°00'0 0.0 1003.4 -6.1
2018-May-12 09:00N 70°49' W 154°00'   1003.4 -22.9 -6.1

Dump ship's entire track history